sensor_id;sensor_type;location;lat;lon;timestamp;P1;durP1;ratioP1;P2;durP2;ratioP2
40162;SDS011;25881;47.462;19.304;2022-07-25T00:00:56;5.50;;;3.13;;
40162;SDS011;25881;47.462;19.304;2022-07-25T00:03:21;4.57;;;3.10;;
40162;SDS011;25881;47.462;19.304;2022-07-25T00:05:47;5.57;;;3.10;;
40162;SDS011;25881;47.462;19.304;2022-07-25T00:08:12;4.60;;;3.00;;
40162;SDS011;25881;47.462;19.304;2022-07-25T00:10:37;5.23;;;3.30;;
40162;SDS011;25881;47.462;19.304;2022-07-25T00:13:02;5.50;;;3.50;;
40162;SDS011;25881;47.462;19.304;2022-07-25T00:15:28;4.20;;;3.20;;
40162;SDS011;25881;47.462;19.304;2022-07-25T00:17:53;4.82;;;3.35;;
40162;SDS011;25881;47.462;19.304;2022-07-25T00:20:18;3.93;;;3.23;;
40162;SDS011;25881;47.462;19.304;2022-07-25T00:22:44;4.27;;;3.47;;
40162;SDS011;25881;47.462;19.304;2022-07-25T00:25:09;4.28;;;3.28;;
40162;SDS011;25881;47.462;19.304;2022-07-25T00:27:34;5.73;;;3.30;;
40162;SDS011;25881;47.462;19.304;2022-07-25T00:29:59;5.80;;;3.20;;
40162;SDS011;25881;47.462;19.304;2022-07-25T00:32:24;4.70;;;3.27;;
40162;SDS011;25881;47.462;19.304;2022-07-25T00:34:50;5.17;;;3.60;;
40162;SDS011;25881;47.462;19.304;2022-07-25T00:37:15;5.00;;;3.10;;
40162;SDS011;25881;47.462;19.304;2022-07-25T00:39:40;5.70;;;3.50;;
40162;SDS011;25881;47.462;19.304;2022-07-25T00:42:05;6.80;;;3.73;;
40162;SDS011;25881;47.462;19.304;2022-07-25T00:44:31;4.88;;;3.53;;
40162;SDS011;25881;47.462;19.304;2022-07-25T00:46:57;5.72;;;3.95;;
40162;SDS011;25881;47.462;19.304;2022-07-25T00:49:22;4.70;;;3.53;;
40162;SDS011;25881;47.462;19.304;2022-07-25T00:51:48;5.60;;;3.88;;
40162;SDS011;25881;47.462;19.304;2022-07-25T00:54:14;4.63;;;3.72;;
40162;SDS011;25881;47.462;19.304;2022-07-25T00:56:39;6.33;;;3.67;;
40162;SDS011;25881;47.462;19.304;2022-07-25T00:59:04;7.30;;;3.60;;
40162;SDS011;25881;47.462;19.304;2022-07-25T01:01:30;5.40;;;4.10;;
40162;SDS011;25881;47.462;19.304;2022-07-25T01:03:55;4.57;;;3.33;;
40162;SDS011;25881;47.462;19.304;2022-07-25T01:06:20;4.77;;;3.70;;
40162;SDS011;25881;47.462;19.304;2022-07-25T01:08:46;4.85;;;2.90;;
40162;SDS011;25881;47.462;19.304;2022-07-25T01:11:11;7.45;;;3.30;;
40162;SDS011;25881;47.462;19.304;2022-07-25T01:13:37;6.15;;;3.42;;
40162;SDS011;25881;47.462;19.304;2022-07-25T01:16:02;3.72;;;3.20;;
40162;SDS011;25881;47.462;19.304;2022-07-25T01:18:27;4.25;;;3.50;;
40162;SDS011;25881;47.462;19.304;2022-07-25T01:20:52;8.70;;;3.60;;
40162;SDS011;25881;47.462;19.304;2022-07-25T01:23:18;5.93;;;3.30;;
40162;SDS011;25881;47.462;19.304;2022-07-25T01:25:43;6.13;;;3.47;;
40162;SDS011;25881;47.462;19.304;2022-07-25T01:28:08;4.97;;;3.40;;
40162;SDS011;25881;47.462;19.304;2022-07-25T01:30:34;6.47;;;3.00;;
40162;SDS011;25881;47.462;19.304;2022-07-25T01:32:59;5.43;;;3.70;;
40162;SDS011;25881;47.462;19.304;2022-07-25T01:35:24;7.00;;;3.50;;
40162;SDS011;25881;47.462;19.304;2022-07-25T01:37:49;6.13;;;3.00;;
40162;SDS011;25881;47.462;19.304;2022-07-25T01:40:15;6.45;;;3.40;;
40162;SDS011;25881;47.462;19.304;2022-07-25T01:42:40;4.37;;;3.20;;
40162;SDS011;25881;47.462;19.304;2022-07-25T01:45:06;6.82;;;3.30;;
40162;SDS011;25881;47.462;19.304;2022-07-25T01:47:31;5.70;;;3.15;;
40162;SDS011;25881;47.462;19.304;2022-07-25T01:49:56;6.67;;;3.70;;
40162;SDS011;25881;47.462;19.304;2022-07-25T01:52:22;6.03;;;3.30;;
40162;SDS011;25881;47.462;19.304;2022-07-25T01:54:47;8.63;;;3.53;;
40162;SDS011;25881;47.462;19.304;2022-07-25T01:57:12;6.60;;;3.33;;
40162;SDS011;25881;47.462;19.304;2022-07-25T01:59:38;4.43;;;3.60;;
40162;SDS011;25881;47.462;19.304;2022-07-25T02:02:04;6.63;;;3.00;;
40162;SDS011;25881;47.462;19.304;2022-07-25T02:04:29;4.93;;;3.55;;
40162;SDS011;25881;47.462;19.304;2022-07-25T02:06:54;4.32;;;3.17;;
40162;SDS011;25881;47.462;19.304;2022-07-25T02:09:20;5.07;;;3.33;;
40162;SDS011;25881;47.462;19.304;2022-07-25T02:11:45;5.50;;;3.13;;
40162;SDS011;25881;47.462;19.304;2022-07-25T02:14:10;6.93;;;3.50;;
40162;SDS011;25881;47.462;19.304;2022-07-25T02:16:35;5.43;;;3.00;;
40162;SDS011;25881;47.462;19.304;2022-07-25T02:19:00;4.17;;;3.10;;
40162;SDS011;25881;47.462;19.304;2022-07-25T02:21:26;5.90;;;3.40;;
40162;SDS011;25881;47.462;19.304;2022-07-25T02:23:51;5.60;;;3.43;;
40162;SDS011;25881;47.462;19.304;2022-07-25T02:26:16;5.37;;;3.30;;
40162;SDS011;25881;47.462;19.304;2022-07-25T02:28:42;6.43;;;3.47;;
40162;SDS011;25881;47.462;19.304;2022-07-25T02:31:07;8.43;;;2.87;;
40162;SDS011;25881;47.462;19.304;2022-07-25T02:33:32;8.93;;;3.50;;
40162;SDS011;25881;47.462;19.304;2022-07-25T02:35:58;4.40;;;3.50;;
40162;SDS011;25881;47.462;19.304;2022-07-25T02:38:23;4.77;;;3.23;;
40162;SDS011;25881;47.462;19.304;2022-07-25T02:40:49;5.97;;;3.15;;
40162;SDS011;25881;47.462;19.304;2022-07-25T02:43:15;5.78;;;3.13;;
40162;SDS011;25881;47.462;19.304;2022-07-25T02:45:40;5.82;;;3.63;;
40162;SDS011;25881;47.462;19.304;2022-07-25T02:48:05;4.07;;;3.30;;
40162;SDS011;25881;47.462;19.304;2022-07-25T02:50:30;6.45;;;3.55;;
40162;SDS011;25881;47.462;19.304;2022-07-25T02:52:56;6.70;;;3.83;;
40162;SDS011;25881;47.462;19.304;2022-07-25T02:55:21;4.63;;;3.20;;
40162;SDS011;25881;47.462;19.304;2022-07-25T02:57:46;4.55;;;2.85;;
40162;SDS011;25881;47.462;19.304;2022-07-25T03:00:12;4.77;;;3.27;;
40162;SDS011;25881;47.462;19.304;2022-07-25T03:02:37;7.97;;;4.07;;
40162;SDS011;25881;47.462;19.304;2022-07-25T03:05:06;7.17;;;3.70;;
40162;SDS011;25881;47.462;19.304;2022-07-25T03:07:32;4.28;;;3.40;;
40162;SDS011;25881;47.462;19.304;2022-07-25T03:09:57;5.33;;;3.13;;
40162;SDS011;25881;47.462;19.304;2022-07-25T03:12:22;6.60;;;4.00;;
40162;SDS011;25881;47.462;19.304;2022-07-25T03:14:47;4.57;;;3.20;;
40162;SDS011;25881;47.462;19.304;2022-07-25T03:17:13;4.47;;;3.67;;
40162;SDS011;25881;47.462;19.304;2022-07-25T03:19:38;5.47;;;3.40;;
40162;SDS011;25881;47.462;19.304;2022-07-25T03:22:03;5.77;;;3.70;;
40162;SDS011;25881;47.462;19.304;2022-07-25T03:24:28;5.30;;;3.40;;
40162;SDS011;25881;47.462;19.304;2022-07-25T03:26:54;7.55;;;3.22;;
40162;SDS011;25881;47.462;19.304;2022-07-25T03:29:19;5.10;;;3.67;;
40162;SDS011;25881;47.462;19.304;2022-07-25T03:31:44;10.83;;;3.73;;
40162;SDS011;25881;47.462;19.304;2022-07-25T03:34:10;5.73;;;3.80;;
40162;SDS011;25881;47.462;19.304;2022-07-25T03:36:35;4.50;;;3.63;;
40162;SDS011;25881;47.462;19.304;2022-07-25T03:39:00;4.93;;;3.50;;
40162;SDS011;25881;47.462;19.304;2022-07-25T03:41:26;7.10;;;3.78;;
40162;SDS011;25881;47.462;19.304;2022-07-25T03:43:51;6.20;;;3.63;;
40162;SDS011;25881;47.462;19.304;2022-07-25T03:46:16;6.05;;;3.67;;
40162;SDS011;25881;47.462;19.304;2022-07-25T03:48:41;8.20;;;4.07;;
40162;SDS011;25881;47.462;19.304;2022-07-25T03:51:07;6.37;;;3.40;;
40162;SDS011;25881;47.462;19.304;2022-07-25T03:53:32;6.97;;;3.63;;
40162;SDS011;25881;47.462;19.304;2022-07-25T03:56:17;6.75;;;3.67;;
40162;SDS011;25881;47.462;19.304;2022-07-25T03:58:42;4.97;;;3.53;;
40162;SDS011;25881;47.462;19.304;2022-07-25T04:01:08;7.13;;;3.77;;
40162;SDS011;25881;47.462;19.304;2022-07-25T04:03:33;5.97;;;3.43;;
40162;SDS011;25881;47.462;19.304;2022-07-25T04:05:58;7.23;;;3.70;;
40162;SDS011;25881;47.462;19.304;2022-07-25T04:08:23;9.50;;;3.97;;
40162;SDS011;25881;47.462;19.304;2022-07-25T04:10:49;11.27;;;4.47;;
40162;SDS011;25881;47.462;19.304;2022-07-25T04:13:14;7.30;;;3.93;;
40162;SDS011;25881;47.462;19.304;2022-07-25T04:15:39;8.93;;;3.70;;
40162;SDS011;25881;47.462;19.304;2022-07-25T04:18:04;6.47;;;4.23;;
40162;SDS011;25881;47.462;19.304;2022-07-25T04:20:29;5.67;;;3.50;;
40162;SDS011;25881;47.462;19.304;2022-07-25T04:22:55;6.83;;;3.80;;
40162;SDS011;25881;47.462;19.304;2022-07-25T04:25:20;5.03;;;4.10;;
40162;SDS011;25881;47.462;19.304;2022-07-25T04:27:45;5.60;;;3.72;;
40162;SDS011;25881;47.462;19.304;2022-07-25T04:30:11;7.23;;;4.00;;
40162;SDS011;25881;47.462;19.304;2022-07-25T04:32:36;5.22;;;3.80;;
40162;SDS011;25881;47.462;19.304;2022-07-25T04:35:01;6.30;;;3.25;;
40162;SDS011;25881;47.462;19.304;2022-07-25T04:37:26;8.10;;;3.73;;
40162;SDS011;25881;47.462;19.304;2022-07-25T04:39:52;5.80;;;3.63;;
40162;SDS011;25881;47.462;19.304;2022-07-25T04:42:17;5.93;;;3.47;;
40162;SDS011;25881;47.462;19.304;2022-07-25T04:44:42;5.73;;;3.70;;
40162;SDS011;25881;47.462;19.304;2022-07-25T04:47:07;6.80;;;4.23;;
40162;SDS011;25881;47.462;19.304;2022-07-25T04:49:32;6.27;;;4.20;;
40162;SDS011;25881;47.462;19.304;2022-07-25T04:51:58;5.83;;;3.83;;
40162;SDS011;25881;47.462;19.304;2022-07-25T04:54:23;6.80;;;3.83;;
40162;SDS011;25881;47.462;19.304;2022-07-25T04:56:48;7.63;;;3.80;;
40162;SDS011;25881;47.462;19.304;2022-07-25T04:59:13;4.57;;;3.93;;
40162;SDS011;25881;47.462;19.304;2022-07-25T05:01:38;6.43;;;4.10;;
40162;SDS011;25881;47.462;19.304;2022-07-25T05:04:04;7.27;;;3.90;;
40162;SDS011;25881;47.462;19.304;2022-07-25T05:06:29;5.33;;;4.00;;
40162;SDS011;25881;47.462;19.304;2022-07-25T05:08:54;5.00;;;4.37;;
40162;SDS011;25881;47.462;19.304;2022-07-25T05:11:19;8.40;;;4.00;;
40162;SDS011;25881;47.462;19.304;2022-07-25T05:13:45;7.33;;;4.07;;
40162;SDS011;25881;47.462;19.304;2022-07-25T05:16:10;6.40;;;3.70;;
40162;SDS011;25881;47.462;19.304;2022-07-25T05:18:35;6.87;;;3.60;;
40162;SDS011;25881;47.462;19.304;2022-07-25T05:21:00;6.97;;;4.03;;
40162;SDS011;25881;47.462;19.304;2022-07-25T05:23:26;7.00;;;4.10;;
40162;SDS011;25881;47.462;19.304;2022-07-25T05:25:51;6.03;;;4.30;;
40162;SDS011;25881;47.462;19.304;2022-07-25T05:28:16;5.63;;;4.30;;
40162;SDS011;25881;47.462;19.304;2022-07-25T05:30:41;5.47;;;4.00;;
40162;SDS011;25881;47.462;19.304;2022-07-25T05:33:06;6.77;;;4.00;;
40162;SDS011;25881;47.462;19.304;2022-07-25T05:35:32;7.43;;;4.07;;
40162;SDS011;25881;47.462;19.304;2022-07-25T05:37:57;7.67;;;3.90;;
40162;SDS011;25881;47.462;19.304;2022-07-25T05:40:22;7.47;;;3.90;;
40162;SDS011;25881;47.462;19.304;2022-07-25T05:42:48;6.07;;;3.97;;
40162;SDS011;25881;47.462;19.304;2022-07-25T05:45:13;7.07;;;4.57;;
40162;SDS011;25881;47.462;19.304;2022-07-25T05:47:38;5.47;;;3.70;;
40162;SDS011;25881;47.462;19.304;2022-07-25T05:50:04;6.97;;;4.07;;
40162;SDS011;25881;47.462;19.304;2022-07-25T05:52:29;4.82;;;3.65;;
40162;SDS011;25881;47.462;19.304;2022-07-25T05:54:55;7.90;;;3.83;;
40162;SDS011;25881;47.462;19.304;2022-07-25T05:57:20;7.90;;;4.10;;
40162;SDS011;25881;47.462;19.304;2022-07-25T05:59:45;5.70;;;3.87;;
40162;SDS011;25881;47.462;19.304;2022-07-25T06:02:10;8.47;;;4.60;;
40162;SDS011;25881;47.462;19.304;2022-07-25T06:04:36;6.37;;;4.27;;
40162;SDS011;25881;47.462;19.304;2022-07-25T06:07:01;10.43;;;4.63;;
40162;SDS011;25881;47.462;19.304;2022-07-25T06:09:26;5.10;;;4.10;;
40162;SDS011;25881;47.462;19.304;2022-07-25T06:11:51;7.47;;;4.10;;
40162;SDS011;25881;47.462;19.304;2022-07-25T06:14:17;7.40;;;4.40;;
40162;SDS011;25881;47.462;19.304;2022-07-25T06:16:42;4.43;;;3.90;;
40162;SDS011;25881;47.462;19.304;2022-07-25T06:19:07;5.37;;;4.10;;
40162;SDS011;25881;47.462;19.304;2022-07-25T06:21:32;7.83;;;4.20;;
40162;SDS011;25881;47.462;19.304;2022-07-25T06:23:58;9.27;;;4.20;;
40162;SDS011;25881;47.462;19.304;2022-07-25T06:26:23;7.55;;;3.88;;
40162;SDS011;25881;47.462;19.304;2022-07-25T06:28:49;11.43;;;4.60;;
40162;SDS011;25881;47.462;19.304;2022-07-25T06:31:14;7.50;;;4.05;;
40162;SDS011;25881;47.462;19.304;2022-07-25T06:33:39;6.17;;;3.87;;
40162;SDS011;25881;47.462;19.304;2022-07-25T06:36:04;4.87;;;3.87;;
40162;SDS011;25881;47.462;19.304;2022-07-25T06:38:30;5.93;;;3.60;;
40162;SDS011;25881;47.462;19.304;2022-07-25T06:40:55;5.82;;;3.92;;
40162;SDS011;25881;47.462;19.304;2022-07-25T06:43:20;7.43;;;3.87;;
40162;SDS011;25881;47.462;19.304;2022-07-25T06:45:46;5.47;;;3.33;;
40162;SDS011;25881;47.462;19.304;2022-07-25T06:48:12;7.80;;;3.95;;
40162;SDS011;25881;47.462;19.304;2022-07-25T06:50:37;5.07;;;4.18;;
40162;SDS011;25881;47.462;19.304;2022-07-25T06:53:02;5.00;;;3.60;;
40162;SDS011;25881;47.462;19.304;2022-07-25T06:55:28;5.65;;;3.92;;
40162;SDS011;25881;47.462;19.304;2022-07-25T06:57:53;6.37;;;3.30;;
40162;SDS011;25881;47.462;19.304;2022-07-25T07:00:18;5.17;;;3.17;;
40162;SDS011;25881;47.462;19.304;2022-07-25T07:05:12;7.50;;;3.65;;
40162;SDS011;25881;47.462;19.304;2022-07-25T07:07:37;8.23;;;3.80;;
40162;SDS011;25881;47.462;19.304;2022-07-25T07:10:02;8.80;;;3.13;;
40162;SDS011;25881;47.462;19.304;2022-07-25T07:12:28;5.55;;;3.10;;
40162;SDS011;25881;47.462;19.304;2022-07-25T07:14:53;7.47;;;3.50;;
40162;SDS011;25881;47.462;19.304;2022-07-25T07:17:18;6.40;;;3.40;;
40162;SDS011;25881;47.462;19.304;2022-07-25T07:19:43;4.70;;;3.90;;
40162;SDS011;25881;47.462;19.304;2022-07-25T07:22:10;5.47;;;3.60;;
40162;SDS011;25881;47.462;19.304;2022-07-25T07:24:35;8.88;;;3.70;;
40162;SDS011;25881;47.462;19.304;2022-07-25T07:27:03;6.80;;;3.53;;
40162;SDS011;25881;47.462;19.304;2022-07-25T07:29:28;6.78;;;3.30;;
40162;SDS011;25881;47.462;19.304;2022-07-25T07:31:53;4.93;;;3.67;;
40162;SDS011;25881;47.462;19.304;2022-07-25T07:34:18;6.78;;;3.50;;
40162;SDS011;25881;47.462;19.304;2022-07-25T07:37:00;7.10;;;3.67;;
40162;SDS011;25881;47.462;19.304;2022-07-25T07:39:26;3.88;;;3.33;;
40162;SDS011;25881;47.462;19.304;2022-07-25T07:41:51;4.00;;;2.90;;
40162;SDS011;25881;47.462;19.304;2022-07-25T07:44:16;8.17;;;3.60;;
40162;SDS011;25881;47.462;19.304;2022-07-25T07:46:42;4.70;;;2.70;;
40162;SDS011;25881;47.462;19.304;2022-07-25T07:49:07;4.30;;;2.97;;
40162;SDS011;25881;47.462;19.304;2022-07-25T07:51:32;4.60;;;3.20;;
40162;SDS011;25881;47.462;19.304;2022-07-25T07:53:58;3.63;;;3.20;;
40162;SDS011;25881;47.462;19.304;2022-07-25T07:56:41;9.40;;;3.65;;
40162;SDS011;25881;47.462;19.304;2022-07-25T07:59:07;11.27;;;3.77;;
40162;SDS011;25881;47.462;19.304;2022-07-25T08:01:32;6.00;;;3.27;;
40162;SDS011;25881;47.462;19.304;2022-07-25T08:03:57;8.90;;;3.60;;
40162;SDS011;25881;47.462;19.304;2022-07-25T08:06:23;5.67;;;3.33;;
40162;SDS011;25881;47.462;19.304;2022-07-25T08:08:48;5.13;;;3.30;;
40162;SDS011;25881;47.462;19.304;2022-07-25T08:11:13;6.43;;;3.60;;
40162;SDS011;25881;47.462;19.304;2022-07-25T08:13:38;6.27;;;3.10;;
40162;SDS011;25881;47.462;19.304;2022-07-25T08:16:04;6.30;;;3.57;;
40162;SDS011;25881;47.462;19.304;2022-07-25T08:18:30;5.38;;;3.22;;
40162;SDS011;25881;47.462;19.304;2022-07-25T08:20:56;4.30;;;3.47;;
40162;SDS011;25881;47.462;19.304;2022-07-25T08:23:22;6.30;;;3.55;;
40162;SDS011;25881;47.462;19.304;2022-07-25T08:25:49;7.65;;;3.85;;
40162;SDS011;25881;47.462;19.304;2022-07-25T08:28:14;6.60;;;4.13;;
40162;SDS011;25881;47.462;19.304;2022-07-25T08:30:40;7.30;;;3.80;;
40162;SDS011;25881;47.462;19.304;2022-07-25T08:33:06;4.85;;;3.45;;
40162;SDS011;25881;47.462;19.304;2022-07-25T08:35:33;9.32;;;3.58;;
40162;SDS011;25881;47.462;19.304;2022-07-25T08:37:59;5.97;;;3.70;;
40162;SDS011;25881;47.462;19.304;2022-07-25T08:40:25;5.95;;;3.83;;
40162;SDS011;25881;47.462;19.304;2022-07-25T08:42:51;7.53;;;4.18;;
40162;SDS011;25881;47.462;19.304;2022-07-25T08:45:16;5.60;;;3.55;;
40162;SDS011;25881;47.462;19.304;2022-07-25T08:47:43;6.10;;;3.30;;
40162;SDS011;25881;47.462;19.304;2022-07-25T08:50:10;7.78;;;4.28;;
40162;SDS011;25881;47.462;19.304;2022-07-25T08:52:36;7.63;;;4.10;;
40162;SDS011;25881;47.462;19.304;2022-07-25T08:55:08;4.78;;;4.22;;
40162;SDS011;25881;47.462;19.304;2022-07-25T08:57:35;5.88;;;4.00;;
40162;SDS011;25881;47.462;19.304;2022-07-25T09:00:01;6.68;;;3.90;;
40162;SDS011;25881;47.462;19.304;2022-07-25T09:02:28;6.40;;;3.70;;
40162;SDS011;25881;47.462;19.304;2022-07-25T09:04:57;6.67;;;3.67;;
40162;SDS011;25881;47.462;19.304;2022-07-25T09:07:55;7.05;;;3.75;;
40162;SDS011;25881;47.462;19.304;2022-07-25T09:10:18;6.18;;;4.22;;
40162;SDS011;25881;47.462;19.304;2022-07-25T09:12:55;8.48;;;4.10;;
40162;SDS011;25881;47.462;19.304;2022-07-25T09:15:25;8.10;;;4.28;;
40162;SDS011;25881;47.462;19.304;2022-07-25T09:17:51;10.20;;;4.20;;
40162;SDS011;25881;47.462;19.304;2022-07-25T09:20:16;9.68;;;4.22;;
40162;SDS011;25881;47.462;19.304;2022-07-25T09:22:42;9.03;;;4.90;;
40162;SDS011;25881;47.462;19.304;2022-07-25T09:25:17;9.07;;;4.38;;
40162;SDS011;25881;47.462;19.304;2022-07-25T09:27:43;7.20;;;3.53;;
40162;SDS011;25881;47.462;19.304;2022-07-25T09:30:14;8.37;;;4.00;;
40162;SDS011;25881;47.462;19.304;2022-07-25T09:32:40;5.53;;;3.97;;
40162;SDS011;25881;47.462;19.304;2022-07-25T09:35:05;6.78;;;3.83;;
40162;SDS011;25881;47.462;19.304;2022-07-25T09:37:30;6.50;;;4.03;;
40162;SDS011;25881;47.462;19.304;2022-07-25T09:39:56;6.70;;;4.13;;
40162;SDS011;25881;47.462;19.304;2022-07-25T09:47:14;8.15;;;3.97;;
40162;SDS011;25881;47.462;19.304;2022-07-25T09:49:41;5.63;;;3.50;;
40162;SDS011;25881;47.462;19.304;2022-07-25T09:52:06;5.25;;;3.88;;
40162;SDS011;25881;47.462;19.304;2022-07-25T09:54:31;8.07;;;4.23;;
40162;SDS011;25881;47.462;19.304;2022-07-25T09:56:57;8.45;;;4.25;;
40162;SDS011;25881;47.462;19.304;2022-07-25T09:59:22;6.83;;;4.40;;
40162;SDS011;25881;47.462;19.304;2022-07-25T10:01:50;6.67;;;3.93;;
40162;SDS011;25881;47.462;19.304;2022-07-25T10:04:19;6.63;;;3.83;;
40162;SDS011;25881;47.462;19.304;2022-07-25T10:09:20;4.35;;;3.63;;
40162;SDS011;25881;47.462;19.304;2022-07-25T10:12:02;7.57;;;3.92;;
40162;SDS011;25881;47.462;19.304;2022-07-25T10:14:27;5.20;;;3.67;;
40162;SDS011;25881;47.462;19.304;2022-07-25T10:16:52;8.40;;;3.80;;
40162;SDS011;25881;47.462;19.304;2022-07-25T10:19:34;6.55;;;3.60;;
40162;SDS011;25881;47.462;19.304;2022-07-25T10:21:59;6.95;;;3.60;;
40162;SDS011;25881;47.462;19.304;2022-07-25T10:24:31;6.30;;;4.43;;
40162;SDS011;25881;47.462;19.304;2022-07-25T10:26:56;4.53;;;3.72;;
40162;SDS011;25881;47.462;19.304;2022-07-25T10:29:21;8.47;;;4.20;;
40162;SDS011;25881;47.462;19.304;2022-07-25T10:32:04;6.20;;;4.10;;
40162;SDS011;25881;47.462;19.304;2022-07-25T10:34:30;7.03;;;3.70;;
40162;SDS011;25881;47.462;19.304;2022-07-25T10:36:55;8.07;;;3.67;;
40162;SDS011;25881;47.462;19.304;2022-07-25T10:39:21;4.18;;;3.63;;
40162;SDS011;25881;47.462;19.304;2022-07-25T10:41:53;8.85;;;3.63;;
40162;SDS011;25881;47.462;19.304;2022-07-25T10:44:19;5.13;;;3.20;;
40162;SDS011;25881;47.462;19.304;2022-07-25T10:46:45;4.53;;;3.55;;
40162;SDS011;25881;47.462;19.304;2022-07-25T10:49:17;3.78;;;3.17;;
40162;SDS011;25881;47.462;19.304;2022-07-25T10:51:50;6.50;;;3.45;;
40162;SDS011;25881;47.462;19.304;2022-07-25T10:54:16;6.32;;;3.95;;
40162;SDS011;25881;47.462;19.304;2022-07-25T10:56:55;4.88;;;3.88;;
40162;SDS011;25881;47.462;19.304;2022-07-25T11:01:52;4.05;;;3.10;;
40162;SDS011;25881;47.462;19.304;2022-07-25T11:04:18;7.80;;;3.55;;
40162;SDS011;25881;47.462;19.304;2022-07-25T11:06:43;8.60;;;3.70;;
40162;SDS011;25881;47.462;19.304;2022-07-25T11:09:18;6.50;;;3.43;;
40162;SDS011;25881;47.462;19.304;2022-07-25T11:11:44;3.88;;;3.00;;
40162;SDS011;25881;47.462;19.304;2022-07-25T11:14:13;5.03;;;3.53;;
40162;SDS011;25881;47.462;19.304;2022-07-25T11:16:39;4.47;;;3.50;;
40162;SDS011;25881;47.462;19.304;2022-07-25T11:19:14;6.77;;;3.83;;
40162;SDS011;25881;47.462;19.304;2022-07-25T11:21:50;5.25;;;3.30;;
40162;SDS011;25881;47.462;19.304;2022-07-25T11:24:15;6.57;;;3.42;;
40162;SDS011;25881;47.462;19.304;2022-07-25T11:26:44;5.00;;;3.27;;
40162;SDS011;25881;47.462;19.304;2022-07-25T11:29:16;6.13;;;3.70;;
40162;SDS011;25881;47.462;19.304;2022-07-25T11:31:42;3.88;;;2.85;;
40162;SDS011;25881;47.462;19.304;2022-07-25T11:34:07;3.90;;;2.97;;
40162;SDS011;25881;47.462;19.304;2022-07-25T11:36:32;4.00;;;3.47;;
40162;SDS011;25881;47.462;19.304;2022-07-25T11:38:57;6.07;;;3.40;;
40162;SDS011;25881;47.462;19.304;2022-07-25T11:41:29;4.03;;;3.25;;
40162;SDS011;25881;47.462;19.304;2022-07-25T11:43:54;6.18;;;3.20;;
40162;SDS011;25881;47.462;19.304;2022-07-25T11:46:19;4.03;;;3.10;;
40162;SDS011;25881;47.462;19.304;2022-07-25T11:48:44;7.63;;;3.43;;
40162;SDS011;25881;47.462;19.304;2022-07-25T11:51:14;4.68;;;3.08;;
40162;SDS011;25881;47.462;19.304;2022-07-25T11:53:41;5.65;;;3.42;;
40162;SDS011;25881;47.462;19.304;2022-07-25T11:56:10;5.03;;;3.55;;
40162;SDS011;25881;47.462;19.304;2022-07-25T11:58:35;5.20;;;3.33;;
40162;SDS011;25881;47.462;19.304;2022-07-25T12:01:09;5.07;;;3.30;;
40162;SDS011;25881;47.462;19.304;2022-07-25T12:03:36;6.60;;;3.55;;
40162;SDS011;25881;47.462;19.304;2022-07-25T12:06:06;8.57;;;3.93;;
40162;SDS011;25881;47.462;19.304;2022-07-25T12:08:35;8.32;;;3.13;;
40162;SDS011;25881;47.462;19.304;2022-07-25T12:11:00;5.90;;;3.17;;
40162;SDS011;25881;47.462;19.304;2022-07-25T12:13:26;10.23;;;4.00;;
40162;SDS011;25881;47.462;19.304;2022-07-25T12:15:52;5.53;;;3.08;;
40162;SDS011;25881;47.462;19.304;2022-07-25T12:18:18;7.18;;;3.90;;
40162;SDS011;25881;47.462;19.304;2022-07-25T12:20:43;5.00;;;3.50;;
40162;SDS011;25881;47.462;19.304;2022-07-25T12:23:09;8.53;;;3.60;;
40162;SDS011;25881;47.462;19.304;2022-07-25T12:25:35;7.78;;;3.58;;
40162;SDS011;25881;47.462;19.304;2022-07-25T12:28:01;4.80;;;3.90;;
40162;SDS011;25881;47.462;19.304;2022-07-25T12:30:27;7.18;;;3.70;;
40162;SDS011;25881;47.462;19.304;2022-07-25T12:32:52;5.88;;;3.40;;
40162;SDS011;25881;47.462;19.304;2022-07-25T12:35:18;4.45;;;3.42;;
40162;SDS011;25881;47.462;19.304;2022-07-25T12:37:43;4.53;;;3.33;;
40162;SDS011;25881;47.462;19.304;2022-07-25T12:40:09;7.20;;;3.77;;
40162;SDS011;25881;47.462;19.304;2022-07-25T12:42:34;4.10;;;3.53;;
40162;SDS011;25881;47.462;19.304;2022-07-25T12:44:59;5.40;;;3.50;;
40162;SDS011;25881;47.462;19.304;2022-07-25T12:47:26;4.50;;;3.65;;
40162;SDS011;25881;47.462;19.304;2022-07-25T12:49:51;7.57;;;3.72;;
40162;SDS011;25881;47.462;19.304;2022-07-25T12:52:16;4.65;;;3.53;;
40162;SDS011;25881;47.462;19.304;2022-07-25T12:54:42;5.90;;;3.37;;
40162;SDS011;25881;47.462;19.304;2022-07-25T12:57:09;5.25;;;3.10;;
40162;SDS011;25881;47.462;19.304;2022-07-25T12:59:35;6.70;;;3.30;;
40162;SDS011;25881;47.462;19.304;2022-07-25T13:02:00;5.20;;;3.15;;
40162;SDS011;25881;47.462;19.304;2022-07-25T13:04:26;5.15;;;3.03;;
40162;SDS011;25881;47.462;19.304;2022-07-25T13:06:51;7.03;;;3.30;;
40162;SDS011;25881;47.462;19.304;2022-07-25T13:09:17;5.40;;;3.20;;
40162;SDS011;25881;47.462;19.304;2022-07-25T13:11:42;5.43;;;3.37;;
40162;SDS011;25881;47.462;19.304;2022-07-25T13:14:07;4.95;;;3.05;;
40162;SDS011;25881;47.462;19.304;2022-07-25T13:16:33;4.10;;;3.00;;
40162;SDS011;25881;47.462;19.304;2022-07-25T13:18:58;5.22;;;3.30;;
40162;SDS011;25881;47.462;19.304;2022-07-25T13:21:23;5.37;;;3.17;;
40162;SDS011;25881;47.462;19.304;2022-07-25T13:23:49;5.25;;;2.75;;
40162;SDS011;25881;47.462;19.304;2022-07-25T13:26:15;4.00;;;2.93;;
40162;SDS011;25881;47.462;19.304;2022-07-25T13:28:40;8.37;;;3.03;;
40162;SDS011;25881;47.462;19.304;2022-07-25T13:31:05;6.57;;;2.90;;
40162;SDS011;25881;47.462;19.304;2022-07-25T13:33:32;6.07;;;3.35;;
40162;SDS011;25881;47.462;19.304;2022-07-25T13:35:57;3.40;;;2.70;;
40162;SDS011;25881;47.462;19.304;2022-07-25T13:38:22;5.65;;;3.25;;
40162;SDS011;25881;47.462;19.304;2022-07-25T13:40:48;8.77;;;2.90;;
40162;SDS011;25881;47.462;19.304;2022-07-25T13:43:13;6.00;;;2.93;;
40162;SDS011;25881;47.462;19.304;2022-07-25T13:45:39;3.87;;;2.83;;
40162;SDS011;25881;47.462;19.304;2022-07-25T13:48:05;5.90;;;2.95;;
40162;SDS011;25881;47.462;19.304;2022-07-25T13:50:30;4.70;;;2.92;;
40162;SDS011;25881;47.462;19.304;2022-07-25T13:52:55;4.50;;;2.88;;
40162;SDS011;25881;47.462;19.304;2022-07-25T13:55:21;4.38;;;2.45;;
40162;SDS011;25881;47.462;19.304;2022-07-25T13:57:47;5.18;;;2.83;;
40162;SDS011;25881;47.462;19.304;2022-07-25T14:00:12;5.03;;;3.00;;
40162;SDS011;25881;47.462;19.304;2022-07-25T14:02:37;4.20;;;2.95;;
40162;SDS011;25881;47.462;19.304;2022-07-25T14:05:03;6.37;;;3.27;;
40162;SDS011;25881;47.462;19.304;2022-07-25T14:07:28;5.88;;;2.63;;
40162;SDS011;25881;47.462;19.304;2022-07-25T14:09:53;7.30;;;2.83;;
40162;SDS011;25881;47.462;19.304;2022-07-25T14:12:18;5.17;;;3.10;;
40162;SDS011;25881;47.462;19.304;2022-07-25T14:14:44;6.97;;;2.72;;
40162;SDS011;25881;47.462;19.304;2022-07-25T14:17:09;7.65;;;3.08;;
40162;SDS011;25881;47.462;19.304;2022-07-25T14:19:34;2.90;;;2.43;;
40162;SDS011;25881;47.462;19.304;2022-07-25T14:21:59;3.67;;;2.40;;
40162;SDS011;25881;47.462;19.304;2022-07-25T14:24:28;7.82;;;3.55;;
40162;SDS011;25881;47.462;19.304;2022-07-25T14:26:53;6.97;;;3.00;;
40162;SDS011;25881;47.462;19.304;2022-07-25T14:29:19;4.05;;;3.05;;
40162;SDS011;25881;47.462;19.304;2022-07-25T14:31:44;5.20;;;3.08;;
40162;SDS011;25881;47.462;19.304;2022-07-25T14:34:09;5.60;;;3.00;;
40162;SDS011;25881;47.462;19.304;2022-07-25T14:36:35;7.83;;;2.87;;
40162;SDS011;25881;47.462;19.304;2022-07-25T14:39:00;6.20;;;3.10;;